Time;durP1;ratioP1;P1;durP2;ratioP2;P2;SDS_P1;SDS_P2;PMS_P1;PMS_P2;Temp;Humidity;BMP_temperature;BMP_pressure;BME280_temperature;BME280_humidity;BME280_pressure;Samples;Min_cycle;Max_cycle;Signal;HPM_P1;HPM_P2
2022/02/02 00:00:18;;;;;;;45.83;30.40;;;22.70;95.00;;;;;;1907289;73;21096;-80
2022/02/02 00:02:54;;;;;;;41.42;28.17;;;22.70;95.00;;;;;;1930506;73;21147;-81
2022/02/02 00:05:33;;;;;;;40.30;29.05;;;22.80;95.00;;;;;;1908891;74;21194;-81
2022/02/02 00:07:56;;;;;;;48.08;33.02;;;22.70;95.00;;;;;;1927781;74;21100;-80
2022/02/02 00:11:06;;;;;;;45.95;31.52;;;22.70;95.00;;;;;;1928622;73;21656;-81
2022/02/02 00:12:59;;;;;;;45.50;32.08;;;22.70;95.10;;;;;;1940255;73;21128;-80
2022/02/02 00:15:39;;;;;;;41.33;28.15;;;22.70;95.30;;;;;;1967554;73;21154;-80
2022/02/02 00:20:37;;;;;;;42.88;30.20;;;22.80;95.50;;;;;;1933188;73;21822;-81
2022/02/02 00:23:07;;;;;;;42.30;29.05;;;22.70;95.60;;;;;;1911847;73;21097;-81
2022/02/02 00:25:46;;;;;;;35.85;27.87;;;22.70;95.70;;;;;;1877526;75;21273;-81
2022/02/02 00:28:07;;;;;;;36.80;26.80;;;22.80;95.70;;;;;;1875139;75;21140;-81
2022/02/02 00:30:39;;;;;;;32.63;26.23;;;22.80;95.90;;;;;;1868228;75;21654;-81
2022/02/02 00:33:24;;;;;;;32.17;25.12;;;22.80;96.10;;;;;;1902003;72;21123;-80
2022/02/02 00:35:45;;;;;;;30.52;23.87;;;22.90;96.40;;;;;;1929253;73;21141;-81
2022/02/02 00:38:13;;;;;;;34.33;24.63;;;22.90;96.20;;;;;;1927349;73;21137;-82
2022/02/02 00:40:44;;;;;;;30.15;23.83;;;22.80;96.10;;;;;;1929774;73;21207;-81
2022/02/02 00:43:15;;;;;;;35.48;25.20;;;22.90;95.90;;;;;;1921741;73;21245;-82
2022/02/02 00:45:47;;;;;;;33.15;26.00;;;22.90;95.90;;;;;;1918296;73;21100;-81
2022/02/02 00:48:19;;;;;;;35.68;25.05;;;22.90;96.00;;;;;;1905119;73;21676;-82
2022/02/02 00:50:50;;;;;;;32.25;24.55;;;22.90;96.20;;;;;;1913450;74;21233;-81
2022/02/02 00:53:21;;;;;;;31.33;22.93;;;22.90;96.10;;;;;;1911996;73;21159;-82
2022/02/02 00:55:54;;;;;;;29.27;21.77;;;22.90;96.00;;;;;;1913666;73;21389;-82
2022/02/02 00:58:24;;;;;;;30.45;22.37;;;23.00;95.90;;;;;;1918235;73;21154;-81
2022/02/02 01:00:55;;;;;;;25.95;19.00;;;23.00;95.90;;;;;;1919083;74;21544;-82
2022/02/02 01:03:27;;;;;;;24.15;16.90;;;23.00;95.60;;;;;;1918158;73;21144;-81
2022/02/02 01:06:00;;;;;;;25.72;19.15;;;23.00;95.10;;;;;;1917518;73;21189;-81
2022/02/02 01:11:43;;;;;;;23.52;16.80;;;23.00;95.00;;;;;;1924939;74;21069;-82
2022/02/02 01:14:29;;;;;;;26.07;17.32;;;23.00;94.80;;;;;;1911557;73;21096;-81
2022/02/02 01:21:27;;;;;;;24.90;15.83;;;23.10;93.90;;;;;;1948129;72;21123;-80
2022/02/02 01:29:06;;;;;;;22.22;13.72;;;23.20;93.60;;;;;;1940491;73;21189;-81
2022/02/02 01:31:38;;;;;;;17.55;14.75;;;23.20;93.40;;;;;;1960910;71;21075;-82
2022/02/02 01:34:09;;;;;;;22.13;14.75;;;23.20;93.30;;;;;;1955282;72;21052;-82
2022/02/02 01:36:40;;;;;;;19.30;14.47;;;23.30;93.30;;;;;;1885579;74;22081;-82
2022/02/02 01:39:13;;;;;;;21.82;16.62;;;23.30;93.10;;;;;;1945124;72;21640;-83
2022/02/02 01:41:45;;;;;;;27.52;16.48;;;23.30;93.20;;;;;;1923299;73;21083;-81
2022/02/02 01:44:40;;;;;;;20.85;16.15;;;23.30;93.20;;;;;;1916069;73;21184;-82
2022/02/02 01:46:49;;;;;;;22.10;16.65;;;23.30;93.20;;;;;;1948127;72;21056;-81
2022/02/02 01:56:55;;;;;;;19.42;15.53;;;23.40;93.00;;;;;;1858366;76;21091;-82
2022/02/02 01:59:39;;;;;;;20.92;17.05;;;23.40;92.80;;;;;;1893038;75;21130;-80
2022/02/02 02:02:00;;;;;;;23.20;17.20;;;23.40;92.90;;;;;;1925827;73;21051;-82
2022/02/02 02:04:30;;;;;;;21.48;16.40;;;23.40;92.90;;;;;;1909730;73;21224;-83
2022/02/02 02:07:01;;;;;;;18.90;14.70;;;23.40;92.80;;;;;;1926798;72;21560;-82
2022/02/02 02:09:33;;;;;;;22.00;15.90;;;23.40;93.00;;;;;;1890859;74;21448;-82
2022/02/02 02:12:07;;;;;;;19.05;15.53;;;23.40;92.60;;;;;;1930180;72;21126;-82
2022/02/02 02:17:12;;;;;;;21.20;15.53;;;23.40;92.40;;;;;;1945251;72;21084;-82
2022/02/02 02:19:48;;;;;;;21.57;15.60;;;23.50;92.60;;;;;;1889062;75;21095;-82
2022/02/02 02:22:16;;;;;;;19.23;14.38;;;23.50;92.50;;;;;;1926980;73;21628;-82
2022/02/02 02:24:47;;;;;;;19.62;15.25;;;23.50;92.50;;;;;;1859840;76;21130;-82
2022/02/02 02:27:22;;;;;;;17.95;14.45;;;23.50;92.40;;;;;;1933527;72;21160;-82
2022/02/02 02:35:43;;;;;;;18.30;13.38;;;23.70;92.40;;;;;;1913974;75;21060;-82
2022/02/02 03:14:03;;;;;;;17.02;12.55;;;24.30;90.70;;;;;;1889575;75;21152;-81
2022/02/02 04:06:24;;;;;;;19.70;14.23;;;25.10;87.50;;;;;;1898101;75;21201;-81
2022/02/02 04:08:54;;;;;;;18.07;13.32;;;25.30;87.60;;;;;;1903176;73;21083;-80
2022/02/02 04:11:39;;;;;;;21.35;14.28;;;25.30;86.70;;;;;;1895300;74;21634;-81
2022/02/02 04:54:39;;;;;;;16.73;11.60;;;25.60;83.80;;;;;;1928238;72;21058;-82
2022/02/02 05:07:25;;;;;;;15.28;11.68;;;25.70;84.30;;;;;;1920115;74;21068;-81
2022/02/02 05:45:32;;;;;;;17.07;10.85;;;26.40;81.40;;;;;;1914361;74;21143;-81
2022/02/02 05:52:50;;;;;;;14.15;10.25;;;26.50;80.90;;;;;;1919300;74;21127;-81
2022/02/02 05:55:21;;;;;;;17.45;10.30;;;26.40;81.10;;;;;;1920929;74;21612;-82
2022/02/02 05:57:56;;;;;;;13.68;10.40;;;26.40;81.10;;;;;;1921109;75;21169;-80
2022/02/02 06:00:26;;;;;;;18.20;10.30;;;26.50;81.30;;;;;;1921401;74;21208;-82
2022/02/02 06:02:59;;;;;;;13.60;9.40;;;26.50;80.20;;;;;;1926985;74;21095;-82
2022/02/02 06:05:30;;;;;;;10.38;9.28;;;26.40;80.60;;;;;;1934760;74;21140;-81
2022/02/02 06:08:02;;;;;;;13.55;10.45;;;26.50;80.60;;;;;;1873751;75;21637;-79
2022/02/02 06:10:33;;;;;;;13.08;9.48;;;26.50;80.70;;;;;;1929523;72;21482;-81
2022/02/02 06:13:04;;;;;;;19.12;10.43;;;26.50;80.30;;;;;;1905665;75;21130;-82
2022/02/02 06:15:37;;;;;;;14.05;10.03;;;26.60;81.00;;;;;;1939015;73;21102;-81
2022/02/02 06:18:08;;;;;;;13.90;10.13;;;26.70;80.20;;;;;;1901079;75;21196;-82
2022/02/02 06:20:40;;;;;;;16.05;10.82;;;26.80;79.70;;;;;;1893899;75;21837;-83
2022/02/02 06:23:12;;;;;;;13.43;9.90;;;26.80;79.60;;;;;;1878646;75;21108;-81
2022/02/02 06:25:45;;;;;;;16.10;10.60;;;26.90;79.50;;;;;;1920648;74;21126;-83
2022/02/02 06:28:18;;;;;;;14.25;10.45;;;27.00;79.90;;;;;;1888543;75;21186;-82
2022/02/02 06:30:51;;;;;;;11.55;9.98;;;27.20;79.00;;;;;;1917788;72;21138;-82
2022/02/02 06:33:26;;;;;;;12.88;9.80;;;27.30;78.80;;;;;;1950940;72;21109;-83
2022/02/02 06:35:57;;;;;;;14.20;10.00;;;27.40;78.20;;;;;;1951413;73;21174;-81
2022/02/02 06:38:30;;;;;;;11.57;9.78;;;27.50;77.10;;;;;;1890550;75;21195;-81
2022/02/02 06:41:02;;;;;;;12.50;10.23;;;27.60;76.90;;;;;;1939014;73;21151;-81
2022/02/02 06:43:33;;;;;;;17.23;10.50;;;27.60;77.00;;;;;;1927240;72;21064;-81
2022/02/02 06:46:04;;;;;;;13.43;10.08;;;27.60;76.70;;;;;;1859074;75;21143;-81
2022/02/02 06:48:35;;;;;;;15.08;10.43;;;27.70;76.60;;;;;;1940809;73;21138;-81
2022/02/02 06:51:18;;;;;;;13.60;9.90;;;27.80;76.00;;;;;;1912929;74;21159;-80
2022/02/02 06:53:44;;;;;;;13.85;10.55;;;27.80;75.90;;;;;;1899380;74;21084;-80
2022/02/02 06:56:27;;;;;;;14.47;10.58;;;27.80;75.90;;;;;;1920821;72;21634;-81
2022/02/02 06:59:05;;;;;;;13.13;9.60;;;27.90;75.90;;;;;;1903693;74;21159;-80
2022/02/02 07:01:41;;;;;;;14.95;10.68;;;28.00;76.20;;;;;;1880615;75;21168;-80
2022/02/02 07:04:05;;;;;;;15.43;10.20;;;28.00;76.40;;;;;;1917520;74;21231;-80
2022/02/02 07:11:54;;;;;;;15.18;10.48;;;28.20;75.60;;;;;;1900011;74;21151;-80
2022/02/02 07:14:21;;;;;;;17.02;10.98;;;28.30;75.40;;;;;;1932140;73;21128;-79
2022/02/02 07:17:05;;;;;;;15.35;10.10;;;28.30;75.20;;;;;;1901724;74;21141;-80
2022/02/02 07:19:38;;;;;;;14.83;10.32;;;28.30;75.30;;;;;;1926596;72;21131;-80
2022/02/02 07:22:14;;;;;;;12.68;10.20;;;28.30;75.10;;;;;;1920322;72;21196;-80
2022/02/02 07:27:28;;;;;;;14.23;10.48;;;28.40;74.90;;;;;;1902942;74;21103;-80
2022/02/02 07:34:42;;;;;;;18.73;11.50;;;28.50;74.60;;;;;;1901939;74;21248;-80
2022/02/02 07:37:15;;;;;;;16.00;10.85;;;28.50;74.20;;;;;;1930573;73;21142;-80
2022/02/02 07:39:45;;;;;;;19.10;11.53;;;28.50;74.20;;;;;;1920539;73;21095;-80
2022/02/02 07:42:19;;;;;;;15.40;10.78;;;28.50;74.40;;;;;;1944435;73;21225;-81
2022/02/02 07:44:54;;;;;;;14.90;10.88;;;28.50;74.10;;;;;;1914376;73;21182;-79
2022/02/02 07:47:27;;;;;;;16.55;11.93;;;28.50;74.50;;;;;;1861975;75;21169;-81
2022/02/02 07:50:00;;;;;;;18.80;11.63;;;28.50;74.60;;;;;;1930783;74;21139;-83
2022/02/02 07:52:31;;;;;;;15.28;10.93;;;28.50;75.40;;;;;;1934282;74;21180;-82
2022/02/02 07:55:04;;;;;;;15.00;10.43;;;28.50;75.00;;;;;;1880676;75;21126;-80
2022/02/02 07:57:36;;;;;;;80.03;17.70;;;28.50;75.30;;;;;;1943347;73;21209;-81
2022/02/02 08:00:13;;;;;;;17.05;11.75;;;28.40;75.80;;;;;;1926673;74;21136;-81
2022/02/02 08:05:16;;;;;;;16.02;10.80;;;28.40;75.80;;;;;;1926523;73;21628;-82
2022/02/02 08:10:22;;;;;;;17.40;11.95;;;28.50;76.00;;;;;;1893734;75;21185;-80
2022/02/02 08:12:57;;;;;;;15.40;11.75;;;28.50;75.60;;;;;;1862447;75;21150;-80
2022/02/02 08:15:29;;;;;;;16.17;11.55;;;28.50;76.80;;;;;;1914353;73;21955;-80
2022/02/02 08:17:57;;;;;;;14.53;10.98;;;28.50;75.70;;;;;;1886025;76;21205;-80
2022/02/02 08:20:29;;;;;;;25.27;12.47;;;28.40;75.80;;;;;;1934204;72;21255;-80
2022/02/02 08:23:00;;;;;;;16.23;11.97;;;28.40;75.60;;;;;;1900483;75;21044;-81
2022/02/02 08:25:32;;;;;;;17.07;12.73;;;28.50;76.30;;;;;;1897544;74;21096;-80
2022/02/02 08:28:05;;;;;;;16.30;11.53;;;28.50;75.80;;;;;;1893404;74;21190;-81
2022/02/02 08:30:36;;;;;;;19.52;12.07;;;28.50;76.20;;;;;;1906231;74;21205;-81
2022/02/02 08:33:13;;;;;;;15.45;12.90;;;28.50;75.60;;;;;;1908434;74;21118;-81
2022/02/02 08:35:46;;;;;;;17.05;12.30;;;28.50;75.60;;;;;;1915170;74;21087;-80
2022/02/02 08:40:50;;;;;;;14.73;11.50;;;28.50;75.50;;;;;;1923320;74;21056;-80
2022/02/02 08:43:32;;;;;;;22.13;12.33;;;28.50;75.60;;;;;;1917287;74;21236;-80
2022/02/02 08:45:50;;;;;;;13.13;11.65;;;28.50;75.60;;;;;;1919560;73;21162;-81
2022/02/02 08:48:26;;;;;;;15.88;11.90;;;28.50;76.00;;;;;;1930917;73;21069;-81
2022/02/02 08:51:01;;;;;;;16.95;12.43;;;28.50;75.80;;;;;;1858710;75;21067;-81
2022/02/02 08:53:54;;;;;;;17.65;12.10;;;28.40;76.00;;;;;;1913120;74;21138;-79
2022/02/02 08:58:46;;;;;;;16.50;11.85;;;28.50;76.40;;;;;;1936109;74;21992;-81
2022/02/02 09:01:13;;;;;;;17.12;12.82;;;28.50;76.10;;;;;;1911961;74;21149;-80
2022/02/02 09:06:15;;;;;;;15.68;12.03;;;28.50;76.20;;;;;;1947663;72;21135;-81
2022/02/02 09:08:48;;;;;;;19.45;13.18;;;28.50;76.00;;;;;;1887686;75;21071;-80
2022/02/02 09:34:12;;;;;;;15.72;13.83;;;28.40;76.70;;;;;;1874347;73;21275;-81
2022/02/02 09:36:45;;;;;;;15.95;13.38;;;28.30;77.00;;;;;;1915874;74;21169;-81
2022/02/02 09:39:22;;;;;;;17.73;12.88;;;28.40;77.30;;;;;;1924238;74;21228;-82
2022/02/02 09:42:01;;;;;;;19.60;12.85;;;28.40;77.60;;;;;;1907418;74;21181;-79
2022/02/02 09:44:23;;;;;;;16.97;12.37;;;28.30;77.40;;;;;;1900035;75;21208;-81
2022/02/02 09:47:02;;;;;;;18.20;12.75;;;28.30;77.40;;;;;;1901924;74;21111;-81
2022/02/02 09:49:46;;;;;;;20.52;12.68;;;28.30;77.40;;;;;;1934169;73;21321;-79
2022/02/02 09:52:11;;;;;;;21.42;15.00;;;28.30;77.30;;;;;;1938845;72;21152;-81
2022/02/02 09:54:42;;;;;;;16.10;12.68;;;28.20;77.40;;;;;;1939751;73;21948;-80
2022/02/02 10:02:28;;;;;;;18.50;13.10;;;28.10;78.60;;;;;;1906780;75;21172;-81
2022/02/02 10:04:47;;;;;;;19.07;13.32;;;28.10;77.90;;;;;;1921854;72;21096;-81
2022/02/02 10:10:00;;;;;;;16.07;13.58;;;28.00;78.00;;;;;;1890889;75;21178;-82
2022/02/02 10:12:49;;;;;;;18.00;13.65;;;28.00;77.80;;;;;;1906913;74;21147;-81
2022/02/02 10:15:03;;;;;;;16.93;13.05;;;28.00;77.80;;;;;;1901720;75;21619;-82
2022/02/02 10:17:33;;;;;;;22.27;18.25;;;28.00;77.80;;;;;;1869795;76;21593;-81
2022/02/02 10:20:07;;;;;;;18.65;14.28;;;28.00;78.00;;;;;;1912041;75;21155;-82
2022/02/02 10:22:40;;;;;;;17.35;13.35;;;27.90;78.10;;;;;;1927384;73;21213;-82
2022/02/02 10:25:10;;;;;;;19.70;14.47;;;27.90;78.50;;;;;;1859219;76;21159;-81
2022/02/02 10:27:43;;;;;;;20.43;15.75;;;27.90;78.60;;;;;;1897249;75;21180;-81
2022/02/02 10:30:15;;;;;;;19.70;14.47;;;27.90;78.90;;;;;;1887057;74;21124;-81
2022/02/02 10:32:48;;;;;;;19.67;14.80;;;27.90;78.90;;;;;;1907733;74;21134;-81
2022/02/02 10:35:21;;;;;;;25.10;18.98;;;27.90;78.50;;;;;;1932774;73;22657;-81
2022/02/02 10:37:56;;;;;;;19.23;15.00;;;27.90;78.40;;;;;;1928060;72;21116;-81
2022/02/02 10:40:29;;;;;;;18.00;14.28;;;27.80;78.60;;;;;;1895524;74;21582;-81
2022/02/02 10:43:02;;;;;;;20.97;15.05;;;27.80;79.60;;;;;;1839575;77;21526;-81
2022/02/02 10:45:33;;;;;;;19.95;15.03;;;27.80;78.80;;;;;;1858400;74;21151;-82
2022/02/02 10:48:16;;;;;;;16.55;13.65;;;27.80;79.10;;;;;;1885740;75;21138;-82
2022/02/02 10:50:46;;;;;;;19.98;14.05;;;27.70;79.20;;;;;;1859341;75;21222;-80
2022/02/02 11:08:30;;;;;;;21.57;15.30;;;27.70;80.20;;;;;;1887033;75;21650;-80
2022/02/02 11:11:01;;;;;;;18.20;14.90;;;27.60;80.30;;;;;;1911471;74;21060;-80
2022/02/02 11:13:31;;;;;;;18.95;14.83;;;27.60;80.40;;;;;;1915905;74;21190;-81
2022/02/02 11:16:03;;;;;;;24.35;15.32;;;27.60;80.50;;;;;;1904972;74;21186;-81
2022/02/02 11:18:36;;;;;;;19.52;15.20;;;27.60;80.60;;;;;;1917125;74;21636;-81
2022/02/02 11:21:09;;;;;;;22.13;15.32;;;27.60;80.70;;;;;;1963749;72;21035;-81
2022/02/02 11:23:42;;;;;;;19.32;14.98;;;27.60;80.90;;;;;;1958633;72;21761;-80
2022/02/02 11:26:14;;;;;;;22.48;15.98;;;27.50;81.80;;;;;;1959028;71;21156;-81
2022/02/02 11:28:47;;;;;;;26.73;16.35;;;27.50;81.20;;;;;;1950673;73;21583;-81
2022/02/02 11:31:18;;;;;;;24.30;16.73;;;27.50;81.20;;;;;;1956330;72;21134;-80
2022/02/02 11:33:53;;;;;;;24.63;18.30;;;27.50;81.30;;;;;;1963762;72;21188;-81
2022/02/02 11:36:26;;;;;;;28.23;18.25;;;27.50;81.50;;;;;;1883727;75;21550;-80
2022/02/02 11:38:56;;;;;;;25.57;17.77;;;27.50;81.50;;;;;;1907992;74;21140;-82
2022/02/02 11:41:41;;;;;;;22.98;18.07;;;27.50;81.60;;;;;;1913573;74;21104;-81
2022/02/02 11:46:40;;;;;;;24.82;18.02;;;27.40;81.60;;;;;;1961670;72;21210;-84
2022/02/02 11:49:15;;;;;;;26.70;16.62;;;27.40;81.70;;;;;;1965438;72;21163;-81
2022/02/02 11:51:47;;;;;;;25.48;18.35;;;27.40;81.80;;;;;;1954145;72;21170;-81
2022/02/02 11:54:20;;;;;;;24.80;18.45;;;27.40;81.80;;;;;;1963080;72;21147;-81
2022/02/02 11:56:53;;;;;;;24.98;19.85;;;27.40;81.80;;;;;;1965526;72;21170;-82
2022/02/02 11:59:26;;;;;;;29.37;21.42;;;27.40;81.90;;;;;;1972307;71;21155;-81
2022/02/02 12:02:01;;;;;;;26.62;18.82;;;27.40;82.00;;;;;;1970265;72;21732;-80
2022/02/02 12:04:44;;;;;;;24.80;18.17;;;27.40;82.30;;;;;;1954054;71;21161;-80
2022/02/02 12:07:13;;;;;;;20.72;17.40;;;27.40;82.20;;;;;;1923260;74;21111;-80
2022/02/02 12:09:47;;;;;;;25.05;17.73;;;27.40;82.20;;;;;;1986329;72;21183;-81
2022/02/02 12:48:00;;;;;;;29.23;21.40;;;27.20;83.50;;;;;;1968605;72;21241;-81
2022/02/02 13:03:14;;;;;;;25.10;20.10;;;27.20;84.10;;;;;;1973985;71;21255;-82
2022/02/02 13:05:46;;;;;;;26.93;20.52;;;27.10;84.00;;;;;;1971467;71;21157;-80
2022/02/02 13:08:18;;;;;;;25.08;20.95;;;27.10;83.90;;;;;;1970679;71;21085;-81
2022/02/02 13:10:51;;;;;;;27.87;19.92;;;27.10;83.90;;;;;;1925640;73;21561;-80
2022/02/02 13:13:26;;;;;;;29.50;21.48;;;27.10;84.10;;;;;;1917834;74;21201;-81
2022/02/02 13:15:58;;;;;;;34.75;25.57;;;27.00;84.20;;;;;;1926307;74;21124;-80
2022/02/02 13:18:41;;;;;;;41.05;27.17;;;27.10;84.90;;;;;;1883266;75;21736;-82
2022/02/02 13:26:23;;;;;;;27.45;20.45;;;27.00;86.50;;;;;;1927108;73;21115;-81
2022/02/02 13:31:21;;;;;;;30.88;22.52;;;26.90;86.40;;;;;;1923990;74;21061;-81
2022/02/02 13:33:55;;;;;;;37.48;25.88;;;26.90;86.60;;;;;;1891193;75;21085;-81
2022/02/02 13:36:43;;;;;;;39.08;26.02;;;26.90;87.30;;;;;;1886891;74;21121;-80
2022/02/02 13:39:19;;;;;;;34.60;25.90;;;26.90;87.90;;;;;;1875444;74;21683;-81
2022/02/02 13:44:27;;;;;;;31.57;24.72;;;26.80;88.70;;;;;;1936459;71;21200;-81
2022/02/02 13:47:22;;;;;;;35.25;24.98;;;26.90;88.90;;;;;;1917972;73;21112;-82
2022/02/02 14:07:20;;;;;;;37.30;25.97;;;26.70;89.20;;;;;;1920793;74;21100;-81
2022/02/02 14:32:23;;;;;;;39.83;27.80;;;26.60;90.10;;;;;;1981557;71;21091;-81
2022/02/02 14:34:56;;;;;;;41.65;28.30;;;26.50;90.10;;;;;;1971627;71;21181;-81
2022/02/02 14:37:36;;;;;;;41.30;28.12;;;26.50;90.10;;;;;;1938993;73;21217;-80
2022/02/02 14:40:12;;;;;;;40.12;26.75;;;26.50;89.80;;;;;;1986877;71;21228;-80
2022/02/02 14:42:33;;;;;;;40.00;28.23;;;26.50;89.60;;;;;;1967210;71;21635;-81
2022/02/02 14:45:10;;;;;;;36.68;30.32;;;26.50;89.50;;;;;;1918945;74;21142;-81
2022/02/02 14:47:39;;;;;;;45.60;30.97;;;26.50;89.50;;;;;;1909210;74;21060;-81
2022/02/02 14:50:22;;;;;;;43.75;30.37;;;26.40;89.60;;;;;;1950229;71;21171;-80
2022/02/02 15:28:21;;;;;;;51.45;37.70;;;26.20;88.90;;;;;;1967084;72;21096;-81
2022/02/02 15:30:58;;;;;;;49.70;36.42;;;26.20;89.00;;;;;;1969542;72;21201;-80
2022/02/02 15:33:26;;;;;;;49.30;38.05;;;26.20;89.00;;;;;;1954777;72;21059;-80
2022/02/02 15:36:20;;;;;;;51.05;38.42;;;26.10;88.80;;;;;;1963889;72;21126;-81
2022/02/02 15:38:28;;;;;;;56.48;42.78;;;26.20;88.90;;;;;;1969401;71;21633;-81
2022/02/02 15:41:04;;;;;;;62.40;43.05;;;26.10;88.70;;;;;;1959107;71;21192;-81
2022/02/02 15:58:48;;;;;;;52.10;37.53;;;26.00;88.90;;;;;;1971490;72;21100;-81
2022/02/02 16:03:47;;;;;;;54.55;38.35;;;26.00;89.00;;;;;;1968567;72;21123;-81
2022/02/02 16:06:22;;;;;;;54.00;37.98;;;26.00;88.90;;;;;;1971945;72;21112;-80
2022/02/02 16:08:59;;;;;;;49.48;37.23;;;26.00;88.90;;;;;;1961023;72;21095;-81
2022/02/02 16:11:31;;;;;;;47.55;36.55;;;26.00;88.90;;;;;;1970140;72;21391;-80
2022/02/02 16:14:00;;;;;;;51.63;37.08;;;26.00;89.00;;;;;;1970724;72;21088;-80
2022/02/02 16:16:45;;;;;;;54.85;39.18;;;25.90;88.90;;;;;;1955675;72;21240;-81
2022/02/02 16:19:15;;;;;;;52.70;36.50;;;25.90;88.70;;;;;;1966985;72;21068;-80
2022/02/02 16:31:58;;;;;;;45.43;32.85;;;25.80;89.10;;;;;;1965763;72;21181;-80
2022/02/02 16:36:56;;;;;;;40.35;31.93;;;25.70;89.20;;;;;;1963558;72;21502;-81
2022/02/02 16:39:23;;;;;;;43.15;31.80;;;25.70;89.30;;;;;;1964160;72;21167;-83
2022/02/02 16:44:25;;;;;;;48.63;30.20;;;25.60;89.50;;;;;;1954930;72;21096;-82
2022/02/02 16:46:57;;;;;;;40.58;29.77;;;25.70;89.30;;;;;;1968750;72;21119;-80
2022/02/02 16:49:28;;;;;;;39.98;29.48;;;25.70;89.20;;;;;;1967084;72;21127;-81
2022/02/02 16:51:59;;;;;;;39.38;27.62;;;25.60;89.00;;;;;;1967916;72;21801;-81
2022/02/02 16:54:36;;;;;;;40.33;29.23;;;25.60;89.00;;;;;;1959715;72;21052;-81
2022/02/02 17:30:23;;;;;;;34.38;25.75;;;25.40;89.30;;;;;;1897084;75;21189;-79
2022/02/02 17:38:00;;;;;;;38.60;27.07;;;25.30;89.40;;;;;;1957019;71;21593;-82
2022/02/02 17:40:19;;;;;;;35.08;25.40;;;25.30;89.40;;;;;;1964221;72;21150;-79
2022/02/02 18:16:21;;;;;;;38.65;28.40;;;25.10;90.20;;;;;;1971455;72;21188;-79
2022/02/02 18:20:52;;;;;;;39.35;27.98;;;25.00;90.40;;;;;;1971303;72;21181;-79
2022/02/02 18:23:42;;;;;;;41.25;28.83;;;25.00;90.50;;;;;;1975084;72;21082;-80
2022/02/02 18:28:34;;;;;;;41.88;29.52;;;25.00;90.50;;;;;;1971736;72;21188;-81
2022/02/02 18:36:19;;;;;;;42.48;28.70;;;24.90;90.90;;;;;;1961782;72;21125;-81
2022/02/02 18:48:53;;;;;;;37.67;28.45;;;24.80;91.40;;;;;;1968879;71;21164;-81
2022/02/02 18:59:09;;;;;;;42.65;28.38;;;24.70;91.60;;;;;;1970341;72;21641;-81
2022/02/02 19:01:33;;;;;;;45.20;32.30;;;24.70;91.70;;;;;;1972862;72;21211;-81
2022/02/02 19:04:13;;;;;;;45.08;34.05;;;24.70;91.70;;;;;;1959641;72;21157;-81
2022/02/02 19:07:04;;;;;;;40.33;30.95;;;24.70;91.80;;;;;;1959303;72;21566;-80
2022/02/02 19:52:37;;;;;;;41.33;30.48;;;24.40;92.00;;;;;;1892583;75;21173;-81
2022/02/02 20:10:02;;;;;;;50.60;39.53;;;24.30;92.10;;;;;;1967602;72;21099;-81
2022/02/02 20:12:37;;;;;;;69.03;58.00;;;24.30;92.20;;;;;;1971275;71;21749;-81
2022/02/02 20:15:01;;;;;;;51.83;35.88;;;24.30;92.20;;;;;;1982709;71;21048;-82
2022/02/02 20:17:34;;;;;;;45.70;33.40;;;24.20;92.20;;;;;;1969934;71;21531;-81
2022/02/02 20:20:15;;;;;;;40.03;30.30;;;24.30;92.30;;;;;;1969334;72;21069;-80
2022/02/02 20:22:37;;;;;;;43.33;31.07;;;24.20;92.30;;;;;;1938873;73;21576;-79
2022/02/02 20:25:09;;;;;;;40.50;30.10;;;24.20;92.20;;;;;;1924093;73;21153;-79
2022/02/02 20:27:41;;;;;;;38.15;27.45;;;24.20;92.20;;;;;;1913736;74;21188;-80
2022/02/02 20:30:12;;;;;;;37.75;27.58;;;24.20;92.10;;;;;;1967450;71;21084;-79
2022/02/02 20:32:43;;;;;;;35.92;25.72;;;24.20;92.10;;;;;;1965349;73;21119;-80
2022/02/02 20:35:14;;;;;;;36.58;27.15;;;24.20;92.10;;;;;;1968710;73;21143;-78
2022/02/02 20:37:44;;;;;;;34.92;25.25;;;24.20;92.20;;;;;;1943816;72;21071;-81
2022/02/02 20:40:15;;;;;;;35.00;24.15;;;24.10;92.20;;;;;;1936619;73;21098;-80
2022/02/02 21:05:49;;;;;;;26.48;20.90;;;24.00;92.30;;;;;;1992793;71;21075;-79
2022/02/02 21:10:41;;;;;;;26.73;21.17;;;24.00;92.20;;;;;;1942334;72;21063;-81
2022/02/02 21:15:43;;;;;;;32.38;21.35;;;24.00;92.20;;;;;;1941019;71;21487;-80
2022/02/02 21:18:21;;;;;;;34.53;21.65;;;24.00;92.20;;;;;;1957563;71;21602;-82
2022/02/02 21:21:01;;;;;;;26.65;20.30;;;23.90;92.10;;;;;;1972105;71;21197;-81
2022/02/02 21:28:27;;;;;;;26.48;20.17;;;23.90;92.00;;;;;;1973401;71;21631;-81
2022/02/02 21:30:58;;;;;;;25.60;20.00;;;23.90;92.00;;;;;;1964292;71;21599;-82
2022/02/02 21:33:29;;;;;;;28.83;20.85;;;23.90;92.00;;;;;;1948342;71;21134;-81
2022/02/02 21:36:00;;;;;;;29.20;20.05;;;23.90;92.00;;;;;;1960471;71;21177;-81
2022/02/02 21:38:41;;;;;;;27.10;21.60;;;23.90;92.00;;;;;;1970609;71;21178;-82
2022/02/02 21:41:05;;;;;;;29.20;21.15;;;23.90;92.10;;;;;;1963961;71;21137;-79
2022/02/02 21:43:35;;;;;;;31.77;22.77;;;23.80;92.50;;;;;;1956572;71;21655;-81
2022/02/02 21:46:06;;;;;;;28.75;20.85;;;23.90;92.10;;;;;;1943938;71;21232;-81
2022/02/02 21:48:40;;;;;;;27.75;20.62;;;23.90;92.10;;;;;;1952750;71;21224;-80
2022/02/02 21:51:19;;;;;;;32.42;23.40;;;23.90;92.10;;;;;;1956507;71;21181;-81
2022/02/02 21:53:41;;;;;;;30.23;21.33;;;23.90;92.20;;;;;;1957006;71;21051;-81
2022/02/02 21:56:11;;;;;;;25.12;19.27;;;23.90;92.20;;;;;;1905851;73;21075;-81
2022/02/02 21:58:42;;;;;;;24.90;19.67;;;23.80;92.10;;;;;;1876828;74;21061;-79
2022/02/02 22:01:13;;;;;;;26.97;21.15;;;23.80;92.30;;;;;;1882098;74;21120;-81
2022/02/02 22:03:43;;;;;;;28.83;21.23;;;23.80;92.30;;;;;;1912072;74;21659;-82
2022/02/02 22:06:15;;;;;;;34.05;23.52;;;23.80;92.40;;;;;;1884546;74;21076;-82
2022/02/02 22:08:46;;;;;;;32.73;23.62;;;23.80;92.50;;;;;;1952066;73;21090;-82
2022/02/02 22:11:16;;;;;;;31.40;22.90;;;23.80;92.60;;;;;;1899090;74;21161;-83
2022/02/02 22:13:57;;;;;;;36.58;26.05;;;23.70;92.60;;;;;;1996565;71;21123;-81
2022/02/02 22:16:21;;;;;;;35.25;24.80;;;23.70;92.80;;;;;;1955281;71;21164;-81
2022/02/02 22:18:52;;;;;;;31.33;22.70;;;23.70;92.70;;;;;;1951720;71;21059;-82
2022/02/02 22:21:25;;;;;;;30.62;22.45;;;23.70;92.70;;;;;;1934257;71;21583;-81
2022/02/02 22:23:55;;;;;;;31.00;22.02;;;23.70;92.70;;;;;;1964468;72;21116;-81
2022/02/02 22:26:26;;;;;;;29.80;20.92;;;23.70;92.70;;;;;;1965136;71;21145;-81
2022/02/02 22:28:57;;;;;;;29.67;19.35;;;23.60;92.60;;;;;;1978363;71;21145;-81
2022/02/02 22:31:28;;;;;;;32.10;21.93;;;23.60;92.60;;;;;;1969375;71;21189;-80
2022/02/02 22:33:59;;;;;;;26.93;20.68;;;23.60;92.70;;;;;;1956414;71;21138;-81
2022/02/02 22:36:29;;;;;;;29.82;22.58;;;23.50;93.10;;;;;;1956247;71;21145;-81
2022/02/02 22:39:00;;;;;;;29.27;20.97;;;23.50;92.70;;;;;;1969624;73;21061;-80
2022/02/02 22:41:30;;;;;;;29.85;20.68;;;23.50;92.70;;;;;;1969772;71;21111;-81
2022/02/02 22:44:07;;;;;;;24.47;19.40;;;23.50;92.70;;;;;;1955094;71;22006;-82
2022/02/02 22:46:35;;;;;;;25.57;20.92;;;23.50;92.60;;;;;;1973473;71;21119;-82
2022/02/02 22:49:06;;;;;;;26.33;19.82;;;23.40;92.70;;;;;;1948434;71;21574;-80
2022/02/02 22:51:37;;;;;;;26.77;20.57;;;23.40;92.70;;;;;;1959311;71;21138;-81
2022/02/02 22:54:08;;;;;;;27.30;19.37;;;23.50;92.70;;;;;;1940365;71;21617;-81
2022/02/02 22:56:40;;;;;;;25.43;18.52;;;23.40;92.70;;;;;;1963064;71;21212;-81
2022/02/02 22:59:10;;;;;;;26.20;18.23;;;23.40;92.70;;;;;;1956223;71;21172;-82
2022/02/02 23:01:42;;;;;;;26.87;19.00;;;23.40;92.70;;;;;;1964654;71;21063;-81
2022/02/02 23:04:13;;;;;;;27.93;20.43;;;23.40;92.50;;;;;;1989060;71;21727;-81
2022/02/02 23:06:44;;;;;;;22.65;16.02;;;23.40;92.30;;;;;;1982032;71;21138;-80
2022/02/02 23:09:16;;;;;;;16.27;12.23;;;23.30;92.10;;;;;;1962549;71;21570;-82
2022/02/02 23:11:46;;;;;;;17.00;11.97;;;23.30;91.90;;;;;;1970740;71;21624;-81
2022/02/02 23:14:24;;;;;;;21.05;15.20;;;23.30;91.80;;;;;;1972909;71;21088;-81
2022/02/02 23:16:53;;;;;;;26.17;17.05;;;23.30;91.80;;;;;;1973106;71;21192;-80
2022/02/02 23:19:23;;;;;;;20.75;12.90;;;23.30;92.10;;;;;;1968821;71;21040;-81
2022/02/02 23:21:54;;;;;;;14.65;10.65;;;23.30;91.80;;;;;;1977811;71;21131;-82
2022/02/02 23:24:28;;;;;;;16.95;10.28;;;23.30;91.60;;;;;;1969507;72;21079;-82
2022/02/02 23:26:59;;;;;;;19.48;11.63;;;23.30;91.50;;;;;;1954737;71;21574;-82
2022/02/02 23:29:33;;;;;;;16.65;12.07;;;23.30;91.40;;;;;;1981231;71;21142;-81
2022/02/02 23:32:01;;;;;;;18.15;11.63;;;23.30;91.40;;;;;;1962872;71;21131;-82